createdAt,value
2018-07-06T00:00:07.038Z,78.80
2018-07-06T00:01:53.865Z,78.58
2018-07-06T00:03:40.657Z,78.27
2018-07-06T00:05:27.480Z,78.37
2018-07-06T00:07:14.237Z,78.62
2018-07-06T00:09:00.948Z,78.29
2018-07-06T00:10:47.777Z,78.25
2018-07-06T00:12:34.909Z,78.23
2018-07-06T00:14:21.760Z,77.85
2018-07-06T00:16:08.624Z,78.13
2018-07-06T00:17:55.557Z,78.07
2018-07-06T00:19:42.501Z,77.86
2018-07-06T00:21:29.560Z,78.34
2018-07-06T00:23:16.601Z,78.24
2018-07-06T00:25:03.307Z,78.48
2018-07-06T00:26:50.170Z,78.18
2018-07-06T00:28:36.901Z,78.20
2018-07-06T00:30:24.492Z,78.31
2018-07-06T00:32:11.560Z,78.38
2018-07-06T00:33:58.336Z,78.76
2018-07-06T00:35:45.096Z,78.77
2018-07-06T00:37:31.717Z,78.66
2018-07-06T00:39:18.433Z,78.47
2018-07-06T00:41:05.348Z,78.56
2018-07-06T00:42:52.036Z,78.69
2018-07-06T00:44:38.819Z,78.16
2018-07-06T00:46:25.494Z,78.18
2018-07-06T00:48:12.562Z,78.18
2018-07-06T00:49:59.805Z,78.23
2018-07-06T00:51:46.517Z,78.30
2018-07-06T00:53:33.305Z,78.54
2018-07-06T00:55:20.203Z,78.63
2018-07-06T00:57:07.339Z,78.91
2018-07-06T00:58:54.228Z,78.50
2018-07-06T01:00:41.106Z,78.41
2018-07-06T01:02:28.148Z,78.62
2018-07-06T01:04:15.009Z,77.86
2018-07-06T01:06:01.761Z,77.75
2018-07-06T01:07:48.731Z,77.74
2018-07-06T01:09:35.512Z,78.00
2018-07-06T01:11:22.570Z,77.64
2018-07-06T01:13:09.789Z,77.65
2018-07-06T01:14:56.616Z,77.42
2018-07-06T01:16:43.446Z,77.44
2018-07-06T01:18:30.288Z,77.37
2018-07-06T01:20:17.102Z,77.18
2018-07-06T01:22:03.801Z,76.66
2018-07-06T01:23:50.579Z,77.23
2018-07-06T01:25:37.268Z,76.48
2018-07-06T01:27:23.942Z,76.25
2018-07-06T01:29:10.653Z,76.03
2018-07-06T01:30:57.340Z,76.27
2018-07-06T01:32:44.090Z,76.07
2018-07-06T01:34:30.828Z,75.92
2018-07-06T01:36:17.764Z,76.08
2018-07-06T01:38:04.816Z,75.51
2018-07-06T01:39:51.583Z,74.48
2018-07-06T01:41:38.296Z,74.35
2018-07-06T01:43:25.087Z,74.04
2018-07-06T01:45:11.819Z,73.79
2018-07-06T01:46:58.712Z,73.60
2018-07-06T01:48:45.421Z,73.22
2018-07-06T01:50:32.244Z,73.77
2018-07-06T01:52:19.103Z,73.17
2018-07-06T01:54:05.886Z,73.72
2018-07-06T01:55:52.724Z,74.04
2018-07-06T01:57:39.940Z,74.35
2018-07-06T01:59:26.862Z,74.29
2018-07-06T02:01:13.574Z,74.08
2018-07-06T02:03:00.316Z,74.72
2018-07-06T02:04:47.085Z,74.86
2018-07-06T02:06:33.962Z,74.97
2018-07-06T02:08:20.631Z,74.49
2018-07-06T02:10:07.339Z,75.00
2018-07-06T02:11:54.171Z,74.61
2018-07-06T02:13:41.160Z,75.05
2018-07-06T02:15:28.159Z,74.87
2018-07-06T02:17:18.564Z,75.22
2018-07-06T02:19:05.281Z,75.20
2018-07-06T02:20:52.058Z,75.43
2018-07-06T02:22:39.361Z,75.79
2018-07-06T02:24:26.100Z,75.33
2018-07-06T02:26:12.829Z,75.28
2018-07-06T02:27:59.478Z,75.39
2018-07-06T02:29:46.407Z,75.07
2018-07-06T02:31:33.191Z,75.32
2018-07-06T02:33:20.066Z,75.69
2018-07-06T02:35:06.912Z,75.57
2018-07-06T02:36:53.734Z,75.36
2018-07-06T02:38:40.464Z,75.99
2018-07-06T02:40:27.651Z,75.49
2018-07-06T02:42:14.536Z,75.52
2018-07-06T02:44:01.631Z,74.69
2018-07-06T02:45:48.435Z,75.22
2018-07-06T02:47:35.272Z,75.18
2018-07-06T02:49:22.152Z,75.57
2018-07-06T02:51:09.049Z,75.20
2018-07-06T02:52:55.780Z,75.35
2018-07-06T02:54:42.745Z,74.81
2018-07-06T02:56:29.550Z,75.28
2018-07-06T02:58:16.210Z,75.17
2018-07-06T03:00:02.976Z,74.66
2018-07-06T03:01:49.955Z,75.30
2018-07-06T03:03:36.824Z,74.99
2018-07-06T03:05:23.738Z,74.83
2018-07-06T03:07:10.601Z,74.74
2018-07-06T03:08:57.584Z,74.67
2018-07-06T03:10:44.471Z,74.58
2018-07-06T03:12:31.211Z,74.66
2018-07-06T03:14:18.316Z,74.44
2018-07-06T03:16:05.225Z,74.00
2018-07-06T03:17:52.444Z,73.68
2018-07-06T03:19:39.650Z,73.85
2018-07-06T03:21:26.467Z,73.99
2018-07-06T03:23:13.344Z,74.60
2018-07-06T03:25:00.015Z,74.68
2018-07-06T03:26:46.781Z,74.69
2018-07-06T03:28:34.456Z,74.39
2018-07-06T03:30:21.005Z,74.64
2018-07-06T03:32:07.776Z,74.46
2018-07-06T03:33:54.589Z,74.45
2018-07-06T03:35:41.260Z,74.30
2018-07-06T03:37:28.129Z,74.27
2018-07-06T03:39:15.027Z,74.16
2018-07-06T03:41:01.882Z,74.24
2018-07-06T03:42:48.716Z,74.28
2018-07-06T03:44:35.591Z,73.75
2018-07-06T03:46:22.280Z,73.71
2018-07-06T03:48:09.081Z,73.73
2018-07-06T03:49:55.822Z,72.96
2018-07-06T03:51:42.615Z,73.57
2018-07-06T03:53:29.243Z,73.63
2018-07-06T03:55:20.673Z,73.24
2018-07-06T03:57:07.546Z,73.16
2018-07-06T03:58:54.608Z,72.25
2018-07-06T04:00:41.456Z,72.50
2018-07-06T04:02:28.152Z,73.09
2018-07-06T04:04:14.856Z,73.02
2018-07-06T04:06:01.906Z,72.80
2018-07-06T04:07:48.758Z,73.12
2018-07-06T04:09:35.607Z,72.98
2018-07-06T04:11:22.629Z,73.00
2018-07-06T04:13:09.380Z,72.30
2018-07-06T04:14:56.056Z,72.17
2018-07-06T04:16:43.374Z,72.87
2018-07-06T04:18:30.208Z,72.39
2018-07-06T04:20:17.090Z,72.13
2018-07-06T04:22:03.909Z,71.60
2018-07-06T04:23:50.760Z,71.94
2018-07-06T04:25:37.535Z,71.94
2018-07-06T04:27:24.396Z,71.90
2018-07-06T04:29:11.203Z,72.05
2018-07-06T04:30:58.060Z,72.23
2018-07-06T04:32:44.844Z,72.20
2018-07-06T04:34:31.995Z,72.20
2018-07-06T04:36:19.036Z,71.80
2018-07-06T04:38:05.927Z,71.76
2018-07-06T04:39:52.818Z,71.26
2018-07-06T04:41:39.699Z,70.50
2018-07-06T04:43:26.592Z,70.17
2018-07-06T04:45:13.272Z,69.50
2018-07-06T04:46:59.953Z,68.99
2018-07-06T04:48:46.819Z,67.85
2018-07-06T04:50:33.631Z,66.31
2018-07-06T04:52:20.374Z,65.97
2018-07-06T04:54:07.144Z,64.64
2018-07-06T04:55:54.322Z,63.75
2018-07-06T04:57:41.259Z,63.46
2018-07-06T04:59:28.052Z,63.27
2018-07-06T05:01:15.162Z,62.88
2018-07-06T05:03:02.076Z,63.56
2018-07-06T05:04:49.020Z,63.51
2018-07-06T05:06:35.825Z,63.45
2018-07-06T05:08:23.700Z,63.35
2018-07-06T05:10:10.886Z,63.96
2018-07-06T05:11:57.735Z,63.94
2018-07-06T05:13:44.690Z,64.10
2018-07-06T05:15:31.380Z,64.12
2018-07-06T05:17:18.285Z,64.32
2018-07-06T05:19:05.152Z,64.75
2018-07-06T05:20:51.790Z,65.01
2018-07-06T05:22:38.693Z,65.05
2018-07-06T05:24:25.516Z,65.40
2018-07-06T05:26:12.342Z,65.57
2018-07-06T05:27:59.172Z,65.36
2018-07-06T05:29:46.624Z,64.62
2018-07-06T05:31:33.509Z,64.28
2018-07-06T05:33:21.173Z,64.43
2018-07-06T05:35:07.981Z,64.44
2018-07-06T05:36:54.786Z,64.06
2018-07-06T05:38:41.514Z,63.40
2018-07-06T05:40:28.208Z,62.74
2018-07-06T05:42:15.090Z,62.46
2018-07-06T05:44:01.803Z,62.63
2018-07-06T05:45:48.609Z,62.43
2018-07-06T05:47:35.435Z,63.10
2018-07-06T05:49:22.516Z,63.19
2018-07-06T05:51:09.368Z,63.01
2018-07-06T05:52:57.328Z,63.22
2018-07-06T05:54:44.376Z,62.95
2018-07-06T05:56:31.061Z,63.26
2018-07-06T05:58:17.892Z,62.74
2018-07-06T06:00:04.722Z,63.16
2018-07-06T06:01:51.554Z,63.02
2018-07-06T06:03:38.581Z,63.04
2018-07-06T06:05:25.368Z,62.79
2018-07-06T06:07:12.150Z,62.26
2018-07-06T06:08:46.712Z,61.77
2018-07-06T06:10:22.275Z,61.63
2018-07-06T06:11:57.940Z,61.24
2018-07-06T06:13:33.644Z,61.00
2018-07-06T06:15:09.465Z,60.84
2018-07-06T06:16:45.042Z,61.19
2018-07-06T06:18:20.776Z,61.91
2018-07-06T06:19:56.369Z,62.16
2018-07-06T06:21:31.957Z,62.10
2018-07-06T06:23:07.608Z,62.79
2018-07-06T06:24:43.149Z,63.02
2018-07-06T06:26:24.609Z,63.03
2018-07-06T06:28:00.160Z,63.40
2018-07-06T06:29:35.849Z,63.74
2018-07-06T06:31:11.428Z,63.59
2018-07-06T06:32:46.953Z,63.26
2018-07-06T06:34:22.707Z,63.56
2018-07-06T06:35:58.273Z,62.62
2018-07-06T06:37:33.832Z,62.55
2018-07-06T06:39:09.401Z,61.95
2018-07-06T06:40:44.950Z,61.98
2018-07-06T06:42:20.526Z,62.26
2018-07-06T06:43:56.143Z,62.12
2018-07-06T06:45:31.689Z,61.90
2018-07-06T06:47:07.311Z,61.53
2018-07-06T06:48:42.997Z,61.12
2018-07-06T06:50:18.617Z,61.37
2018-07-06T06:51:54.439Z,61.12
2018-07-06T06:53:29.996Z,60.81
2018-07-06T06:55:05.544Z,60.97
2018-07-06T06:56:41.290Z,60.71
2018-07-06T06:58:16.927Z,60.47
2018-07-06T06:59:52.493Z,60.42
2018-07-06T07:01:28.081Z,60.27
2018-07-06T07:03:03.956Z,60.85
2018-07-06T07:04:39.789Z,60.39
2018-07-06T07:06:15.357Z,60.08
2018-07-06T07:07:50.971Z,59.70
2018-07-06T07:09:26.439Z,59.98
2018-07-06T07:11:02.025Z,59.63
2018-07-06T07:12:37.586Z,59.12
2018-07-06T07:14:13.270Z,59.00
2018-07-06T07:15:48.782Z,59.00
2018-07-06T07:17:24.874Z,59.19
2018-07-06T07:19:00.460Z,59.17
2018-07-06T07:20:36.054Z,59.58
2018-07-06T07:22:11.642Z,59.64
2018-07-06T07:23:47.212Z,59.92
2018-07-06T07:27:28.167Z,60.52
2018-07-06T07:29:03.728Z,60.56
2018-07-06T07:30:39.365Z,60.90
2018-07-06T07:32:14.995Z,59.93
2018-07-06T07:33:50.773Z,59.73
2018-07-06T07:35:26.384Z,58.97
2018-07-06T07:37:02.096Z,58.83
2018-07-06T07:38:37.662Z,59.14
2018-07-06T07:40:13.357Z,58.65
2018-07-06T07:41:48.957Z,58.35
2018-07-06T07:43:24.549Z,58.14
2018-07-06T07:45:00.147Z,58.03
2018-07-06T07:46:35.882Z,57.59
2018-07-06T07:48:11.454Z,57.12
2018-07-06T07:49:47.295Z,56.97
2018-07-06T07:52:01.327Z,56.81
2018-07-06T07:53:48.065Z,56.96
2018-07-06T07:55:23.619Z,57.29
2018-07-06T07:57:00.113Z,57.00
2018-07-06T07:58:35.696Z,57.19
2018-07-06T08:00:11.576Z,57.28
2018-07-06T08:01:47.127Z,57.29
2018-07-06T08:03:22.732Z,56.92
2018-07-06T08:04:58.303Z,56.91
2018-07-06T08:06:33.898Z,57.46
2018-07-06T08:08:09.451Z,57.62
2018-07-06T08:09:45.093Z,57.62
2018-07-06T08:11:20.702Z,57.58
2018-07-06T08:12:56.273Z,56.64
2018-07-06T08:14:31.882Z,56.21
2018-07-06T08:16:07.815Z,55.50
2018-07-06T08:17:43.633Z,55.04
2018-07-06T08:19:19.428Z,55.40
2018-07-06T08:20:54.993Z,55.15
2018-07-06T08:22:30.569Z,54.63
2018-07-06T08:24:06.172Z,53.12
2018-07-06T08:25:41.740Z,53.98
2018-07-06T08:27:17.331Z,53.77
2018-07-06T08:28:52.883Z,53.78
2018-07-06T08:30:29.188Z,53.40
2018-07-06T08:32:04.753Z,53.67
2018-07-06T08:33:49.022Z,53.58
2018-07-06T08:35:35.831Z,53.68
2018-07-06T08:37:28.046Z,54.18
2018-07-06T08:39:03.924Z,54.01
2018-07-06T08:40:39.488Z,53.89
2018-07-06T08:42:15.041Z,53.73
2018-07-06T08:43:50.597Z,53.13
2018-07-06T08:45:26.893Z,52.50
2018-07-06T08:47:02.473Z,52.61
2018-07-06T08:48:38.147Z,52.91
2018-07-06T08:50:13.694Z,51.96
2018-07-06T08:51:49.601Z,51.89
2018-07-06T08:53:25.142Z,50.62
2018-07-06T08:55:00.741Z,50.62
2018-07-06T08:56:36.660Z,50.93
2018-07-06T08:58:12.526Z,50.11
2018-07-06T08:59:48.768Z,51.24
2018-07-06T09:01:24.529Z,51.24
2018-07-06T09:03:00.120Z,50.19
2018-07-06T09:04:36.066Z,50.04
2018-07-06T09:06:11.913Z,50.42
2018-07-06T09:07:47.761Z,50.71
2018-07-06T09:09:23.379Z,50.71
2018-07-06T09:10:58.891Z,51.39
2018-07-06T09:12:34.473Z,51.62
2018-07-06T09:14:10.067Z,51.50
2018-07-06T09:15:45.672Z,52.19
2018-07-06T09:17:22.788Z,52.55
2018-07-06T09:18:58.423Z,52.41
2018-07-06T09:20:33.980Z,51.94
2018-07-06T09:22:09.663Z,51.84
2018-07-06T09:23:45.436Z,51.73
2018-07-06T09:25:21.263Z,51.12
2018-07-06T09:26:56.787Z,50.91
2018-07-06T09:28:32.507Z,51.28
2018-07-06T09:30:08.363Z,50.84
2018-07-06T09:31:44.039Z,51.03
2018-07-06T09:33:19.592Z,51.71
2018-07-06T09:34:55.729Z,51.31
2018-07-06T09:36:31.741Z,51.17
2018-07-06T09:38:07.311Z,51.16
2018-07-06T09:39:43.605Z,51.43
2018-07-06T09:41:19.183Z,51.92
2018-07-06T09:42:54.752Z,51.47
2018-07-06T09:44:30.378Z,51.24
2018-07-06T09:46:06.213Z,51.09
2018-07-06T09:47:41.776Z,50.81
2018-07-06T09:49:17.499Z,50.03
2018-07-06T09:50:53.106Z,50.89
2018-07-06T09:52:28.667Z,50.29
2018-07-06T09:54:04.230Z,50.55
2018-07-06T09:55:39.828Z,50.03
2018-07-06T09:57:15.406Z,49.29
2018-07-06T09:58:51.064Z,49.78
2018-07-06T10:00:32.055Z,49.40
2018-07-06T10:02:07.685Z,48.78
2018-07-06T10:03:43.232Z,48.47
2018-07-06T10:05:18.801Z,48.49
2018-07-06T10:06:54.626Z,49.66
2018-07-06T10:08:30.202Z,50.32
2018-07-06T10:10:05.802Z,49.63
2018-07-06T10:11:41.364Z,49.81
2018-07-06T10:13:17.016Z,49.96
2018-07-06T10:14:52.625Z,50.33
2018-07-06T10:16:28.159Z,50.47
2018-07-06T10:18:03.720Z,50.36
2018-07-06T10:19:39.622Z,50.69
2018-07-06T10:21:15.165Z,50.32
2018-07-06T10:22:50.740Z,49.87
2018-07-06T10:24:26.327Z,49.20
2018-07-06T10:26:01.869Z,48.33
2018-07-06T10:27:46.217Z,48.96
2018-07-06T10:29:48.369Z,48.68
2018-07-06T10:31:34.097Z,49.02
2018-07-06T10:33:09.841Z,49.13
2018-07-06T10:34:45.428Z,49.03
2018-07-06T10:36:21.182Z,48.99
2018-07-06T10:37:56.784Z,48.49
2018-07-06T10:39:32.379Z,48.56
2018-07-06T10:41:07.884Z,49.13
2018-07-06T10:42:43.455Z,48.74
2018-07-06T10:44:19.050Z,49.73
2018-07-06T10:45:54.599Z,48.82
2018-07-06T10:47:30.162Z,48.61
2018-07-06T10:49:06.112Z,47.59
2018-07-06T10:50:41.810Z,47.04
2018-07-06T10:52:17.862Z,46.39
2018-07-06T10:53:53.425Z,46.03
2018-07-06T10:55:29.038Z,46.26
2018-07-06T10:57:04.940Z,46.16
2018-07-06T10:58:40.517Z,46.41
2018-07-06T11:00:16.062Z,46.87
2018-07-06T11:01:51.676Z,46.62
2018-07-06T11:03:27.261Z,47.02
2018-07-06T11:05:02.904Z,46.69
2018-07-06T11:06:38.538Z,46.60
2018-07-06T11:08:14.134Z,45.88
2018-07-06T11:09:49.703Z,46.69
2018-07-06T11:11:25.279Z,46.42
2018-07-06T11:13:00.852Z,46.30
2018-07-06T11:14:36.442Z,45.61
2018-07-06T11:16:11.980Z,45.41
2018-07-06T11:17:47.633Z,45.54
2018-07-06T11:19:23.349Z,45.11
2018-07-06T11:20:58.946Z,45.36
2018-07-06T11:22:34.593Z,45.14
2018-07-06T11:24:10.725Z,45.79
2018-07-06T11:25:46.276Z,45.92
2018-07-06T11:27:22.080Z,45.41
2018-07-06T11:28:57.664Z,46.13
2018-07-06T11:30:33.264Z,46.07
2018-07-06T11:32:08.883Z,45.87
2018-07-06T11:33:44.384Z,46.33
2018-07-06T11:35:20.069Z,45.37
2018-07-06T11:36:55.670Z,45.42
2018-07-06T11:38:31.276Z,45.61
2018-07-06T11:40:06.852Z,45.71
2018-07-06T11:41:42.556Z,45.64
2018-07-06T11:43:18.382Z,45.97
2018-07-06T11:44:54.062Z,45.65
2018-07-06T11:46:29.837Z,46.13
2018-07-06T11:48:05.393Z,46.44
2018-07-06T11:49:41.475Z,45.95
2018-07-06T11:51:17.225Z,45.35
2018-07-06T11:52:52.807Z,45.04
2018-07-06T11:54:28.364Z,44.97
2018-07-06T11:56:04.032Z,45.23
2018-07-06T11:57:39.573Z,45.56
2018-07-06T11:59:15.253Z,45.80
2018-07-06T12:00:50.876Z,45.47
2018-07-06T12:02:26.507Z,44.73
2018-07-06T12:04:02.492Z,44.30
2018-07-06T12:05:38.365Z,44.57
2018-07-06T12:07:14.041Z,44.58
2018-07-06T12:08:49.606Z,44.19
2018-07-06T12:10:25.177Z,44.45
2018-07-06T12:12:00.705Z,43.92
2018-07-06T12:13:36.590Z,44.27
2018-07-06T12:15:12.493Z,44.44
2018-07-06T12:16:48.355Z,44.33
2018-07-06T12:18:23.961Z,44.64
2018-07-06T12:19:59.532Z,44.95
2018-07-06T12:21:35.551Z,44.89
2018-07-06T12:23:11.122Z,44.61
2018-07-06T12:24:46.725Z,44.56
2018-07-06T12:26:22.279Z,45.65
2018-07-06T12:27:57.829Z,45.53
2018-07-06T12:29:33.396Z,44.71
2018-07-06T12:31:09.016Z,44.30
2018-07-06T12:32:45.003Z,43.63
2018-07-06T12:34:20.556Z,43.42
2018-07-06T12:35:56.249Z,44.30
2018-07-06T12:37:31.844Z,45.13
2018-07-06T12:39:07.436Z,44.75
2018-07-06T12:40:43.262Z,44.81
2018-07-06T12:42:19.177Z,44.68
2018-07-06T12:43:54.748Z,44.43
2018-07-06T12:45:30.500Z,43.84
2018-07-06T12:47:06.115Z,43.82
2018-07-06T12:48:41.711Z,43.45
2018-07-06T12:50:17.518Z,43.05
2018-07-06T12:51:56.157Z,42.66
2018-07-06T12:53:32.014Z,42.47
2018-07-06T12:55:07.745Z,41.92
2018-07-06T12:56:43.706Z,42.06
2018-07-06T12:58:19.346Z,42.19
2018-07-06T12:59:54.846Z,41.59
2018-07-06T13:01:30.411Z,41.55
2018-07-06T13:03:06.007Z,42.52
2018-07-06T13:04:41.556Z,42.65
2018-07-06T13:06:17.154Z,42.48
2018-07-06T13:07:52.731Z,43.62
2018-07-06T13:09:28.275Z,43.52
2018-07-06T13:11:03.886Z,43.39
2018-07-06T13:12:39.485Z,43.33
2018-07-06T13:14:15.307Z,42.87
2018-07-06T13:15:50.972Z,42.69
2018-07-06T13:17:26.530Z,42.74
2018-07-06T13:19:02.089Z,42.70
2018-07-06T13:20:37.682Z,42.08
2018-07-06T13:22:14.067Z,41.81
2018-07-06T13:23:50.024Z,41.93
2018-07-06T13:25:25.644Z,41.80
2018-07-06T13:27:01.434Z,41.57
2018-07-06T13:28:37.010Z,41.13
2018-07-06T13:30:12.599Z,41.53
2018-07-06T13:31:48.167Z,42.47
2018-07-06T13:33:23.762Z,42.53
2018-07-06T13:34:59.329Z,42.98
2018-07-06T13:36:34.914Z,43.63
2018-07-06T13:38:10.468Z,44.02
2018-07-06T13:39:46.036Z,43.43
2018-07-06T13:41:21.631Z,43.81
2018-07-06T13:42:57.191Z,44.87
2018-07-06T13:44:32.749Z,44.66
2018-07-06T13:46:08.275Z,44.95
2018-07-06T13:47:43.858Z,44.37
2018-07-06T13:49:19.896Z,44.28
2018-07-06T13:50:55.440Z,44.05
2018-07-06T13:52:31.052Z,44.13
2018-07-06T13:54:06.813Z,43.96
2018-07-06T13:55:42.691Z,43.91
2018-07-06T13:57:18.250Z,43.29
2018-07-06T13:58:54.598Z,43.22
2018-07-06T14:00:30.385Z,42.99
2018-07-06T14:02:06.308Z,43.29
2018-07-06T14:03:42.121Z,42.98
2018-07-06T14:05:17.688Z,42.88
2018-07-06T14:06:53.594Z,42.83
2018-07-06T14:08:29.153Z,43.07
2018-07-06T14:10:05.246Z,42.56
2018-07-06T14:11:41.084Z,43.46
2018-07-06T14:13:16.611Z,43.61
2018-07-06T14:14:52.257Z,43.15
2018-07-06T14:16:27.861Z,43.40
2018-07-06T14:18:03.470Z,44.01
2018-07-06T14:19:39.127Z,44.53
2018-07-06T14:21:14.635Z,44.38
2018-07-06T14:22:50.364Z,44.83
2018-07-06T14:24:26.106Z,44.42
2018-07-06T14:26:01.728Z,44.30
2018-07-06T14:27:37.303Z,44.68
2018-07-06T14:29:12.890Z,44.19
2018-07-06T14:30:48.434Z,43.93
2018-07-06T14:32:23.984Z,43.18
2018-07-06T14:33:59.565Z,44.11
2018-07-06T14:35:35.096Z,43.89
2018-07-06T14:37:10.645Z,43.51
2018-07-06T14:38:46.233Z,43.47
2018-07-06T14:40:21.763Z,43.02
2018-07-06T14:41:57.339Z,43.54
2018-07-06T14:43:32.945Z,43.74
2018-07-06T14:45:08.506Z,42.44
2018-07-06T14:46:44.066Z,42.45
2018-07-06T14:48:19.666Z,42.11
2018-07-06T14:49:55.294Z,41.81
2018-07-06T14:51:30.871Z,41.69
2018-07-06T14:53:06.453Z,41.26
2018-07-06T14:54:42.028Z,41.60
2018-07-06T14:56:17.609Z,41.56
2018-07-06T14:57:53.584Z,42.50
2018-07-06T14:59:29.415Z,42.27
2018-07-06T15:01:05.007Z,41.64
2018-07-06T15:02:40.655Z,41.31
2018-07-06T15:04:16.254Z,41.45
2018-07-06T15:05:51.999Z,40.08
2018-07-06T15:07:27.594Z,40.71
2018-07-06T15:09:03.288Z,40.03
2018-07-06T15:10:38.815Z,40.62
2018-07-06T15:12:14.455Z,40.83
2018-07-06T15:13:50.013Z,40.72
2018-07-06T15:15:25.576Z,40.94
2018-07-06T15:17:01.124Z,40.27
2018-07-06T15:18:36.716Z,41.10
2018-07-06T15:20:12.361Z,40.96
2018-07-06T15:21:47.964Z,40.75
2018-07-06T15:23:23.548Z,40.58
2018-07-06T15:24:59.127Z,40.67
2018-07-06T15:26:34.795Z,40.46
2018-07-06T15:28:10.381Z,41.08
2018-07-06T15:29:45.930Z,41.08
2018-07-06T15:31:21.923Z,40.47
2018-07-06T15:32:57.454Z,40.37
2018-07-06T15:34:33.011Z,40.09
2018-07-06T15:36:08.607Z,40.08
2018-07-06T15:37:44.147Z,39.14
2018-07-06T15:39:19.847Z,39.06
2018-07-06T15:40:55.453Z,39.42
2018-07-06T15:42:30.946Z,39.44
2018-07-06T15:44:06.646Z,38.64
2018-07-06T15:45:42.206Z,38.54
2018-07-06T15:47:17.790Z,38.47
2018-07-06T15:48:53.492Z,38.28
2018-07-06T15:50:29.405Z,37.98
2018-07-06T15:52:04.983Z,39.04
2018-07-06T15:53:40.602Z,39.10
2018-07-06T15:55:16.138Z,39.00
2018-07-06T15:56:51.747Z,39.48
2018-07-06T15:58:27.370Z,39.86
2018-07-06T16:00:02.937Z,40.62
2018-07-06T16:01:38.510Z,41.53
2018-07-06T16:03:14.121Z,42.20
2018-07-06T16:04:49.710Z,42.68
2018-07-06T16:06:25.271Z,43.23
2018-07-06T16:08:00.851Z,44.16
2018-07-06T16:09:36.414Z,44.42
2018-07-06T16:11:11.962Z,44.38
2018-07-06T16:12:47.563Z,44.33
2018-07-06T16:14:23.150Z,44.37
2018-07-06T16:15:58.721Z,44.37
2018-07-06T16:17:34.391Z,45.03
2018-07-06T16:19:09.933Z,45.35
2018-07-06T16:20:45.537Z,45.37
2018-07-06T16:22:21.509Z,45.59
2018-07-06T16:23:57.089Z,46.22
2018-07-06T16:25:32.814Z,45.88
2018-07-06T16:27:08.377Z,46.01
2018-07-06T16:28:43.928Z,46.24
2018-07-06T16:30:19.753Z,46.41
2018-07-06T16:31:55.366Z,46.91
2018-07-06T16:33:30.943Z,47.22
2018-07-06T16:35:06.610Z,47.45
2018-07-06T16:36:42.199Z,47.27
2018-07-06T16:38:17.757Z,47.33
2018-07-06T16:39:53.327Z,47.97
2018-07-06T16:41:28.977Z,47.64
2018-07-06T16:43:04.560Z,47.92
2018-07-06T16:44:40.208Z,47.79
2018-07-06T16:46:16.212Z,48.33
2018-07-06T16:47:51.741Z,48.06
2018-07-06T16:49:27.291Z,48.15
2018-07-06T16:51:03.032Z,48.40
2018-07-06T16:52:38.900Z,48.69
2018-07-06T16:54:14.592Z,48.32
2018-07-06T16:55:50.358Z,47.94
2018-07-06T16:57:25.976Z,47.89
2018-07-06T16:59:01.516Z,47.96
2018-07-06T17:00:37.140Z,48.64
2018-07-06T17:02:12.732Z,48.43
2018-07-06T17:03:48.464Z,48.63
2018-07-06T17:05:24.044Z,48.75
2018-07-06T17:06:59.662Z,48.35
2018-07-06T17:08:35.199Z,48.03
2018-07-06T17:10:11.046Z,47.83
2018-07-06T17:11:46.844Z,48.06
2018-07-06T17:13:22.596Z,48.71
2018-07-06T17:14:58.194Z,49.33
2018-07-06T17:16:33.816Z,50.34
2018-07-06T17:18:09.562Z,49.20
2018-07-06T17:19:45.156Z,48.63
2018-07-06T17:21:20.679Z,49.59
2018-07-06T17:22:56.301Z,49.20
2018-07-06T17:24:31.857Z,47.84
2018-07-06T17:26:07.405Z,47.94
2018-07-06T17:27:43.094Z,48.35
2018-07-06T17:29:18.716Z,49.04
2018-07-06T17:30:54.276Z,46.62
2018-07-06T17:32:29.884Z,46.65
2018-07-06T17:34:05.474Z,46.85
2018-07-06T17:35:41.347Z,46.35
2018-07-06T17:37:16.946Z,46.89
2018-07-06T17:38:52.536Z,46.71
2018-07-06T17:40:28.104Z,46.68
2018-07-06T17:42:03.666Z,47.37
2018-07-06T17:43:39.228Z,47.67
2018-07-06T17:45:14.837Z,46.93
2018-07-06T17:46:50.708Z,47.17
2018-07-06T17:48:26.315Z,46.76
2018-07-06T17:50:01.854Z,46.27
2018-07-06T17:51:37.439Z,46.51
2018-07-06T17:53:13.043Z,46.86
2018-07-06T17:54:48.588Z,45.93
2018-07-06T17:56:25.880Z,46.01
2018-07-06T17:58:01.393Z,45.64
2018-07-06T17:59:36.985Z,46.02
2018-07-06T18:01:12.523Z,45.61
2018-07-06T18:02:48.133Z,45.29
2018-07-06T18:04:23.688Z,44.82
2018-07-06T18:05:59.290Z,44.78
2018-07-06T18:07:35.170Z,45.02
2018-07-06T18:09:10.817Z,45.16
2018-07-06T18:10:46.293Z,45.06
2018-07-06T18:12:21.847Z,45.06
2018-07-06T18:13:57.490Z,44.76
2018-07-06T18:15:33.396Z,44.64
2018-07-06T18:17:08.952Z,44.27
2018-07-06T18:18:44.564Z,44.76
2018-07-06T18:20:20.754Z,44.62
2018-07-06T18:21:56.514Z,45.05
2018-07-06T18:23:32.675Z,44.72
2018-07-06T18:25:08.586Z,44.67
2018-07-06T18:26:44.216Z,45.05
2018-07-06T18:28:19.979Z,44.60
2018-07-06T18:29:55.610Z,44.68
2018-07-06T18:31:31.216Z,44.72
2018-07-06T18:33:06.759Z,44.87
2018-07-06T18:34:42.295Z,44.91
2018-07-06T18:36:17.834Z,44.04
2018-07-06T18:37:53.443Z,44.36
2018-07-06T18:39:29.222Z,44.35
2018-07-06T18:41:04.773Z,44.18
2018-07-06T18:42:40.362Z,44.61
2018-07-06T18:44:16.102Z,44.60
2018-07-06T18:45:51.919Z,44.58
2018-07-06T18:47:27.460Z,44.68
2018-07-06T18:50:52.926Z,45.01
2018-07-06T18:52:28.530Z,45.11
2018-07-06T18:54:04.146Z,45.32
2018-07-06T18:55:39.719Z,45.24
2018-07-06T18:57:15.270Z,45.69
2018-07-06T18:58:50.835Z,46.03
2018-07-06T19:00:26.497Z,45.81
2018-07-06T19:03:36.656Z,46.65
2018-07-06T19:05:12.270Z,46.64
2018-07-06T19:06:47.852Z,47.00
2018-07-06T19:08:23.608Z,47.50
2018-07-06T19:09:59.257Z,47.73
2018-07-06T19:11:35.069Z,47.82
2018-07-06T19:13:10.673Z,48.57
2018-07-06T19:14:46.240Z,48.44
2018-07-06T19:16:21.821Z,49.69
2018-07-06T19:17:57.633Z,50.00
2018-07-06T19:19:33.172Z,51.53
2018-07-06T19:21:08.913Z,51.74
2018-07-06T19:22:44.483Z,50.14
2018-07-06T19:24:20.044Z,51.68
2018-07-06T19:25:55.972Z,52.50
2018-07-06T19:27:31.622Z,52.81
2018-07-06T19:29:07.207Z,51.36
2018-07-06T19:30:42.866Z,52.46
2018-07-06T19:32:18.457Z,53.32
2018-07-06T19:33:54.050Z,53.48
2018-07-06T19:35:29.634Z,53.09
2018-07-06T19:37:05.183Z,54.44
2018-07-06T19:38:40.712Z,54.74
2018-07-06T19:40:16.285Z,55.29
2018-07-06T19:41:51.827Z,55.78
2018-07-06T19:43:27.391Z,55.81
2018-07-06T19:45:02.976Z,56.21
2018-07-06T19:46:38.518Z,56.38
2018-07-06T19:48:14.359Z,56.53
2018-07-06T19:49:49.895Z,56.77
2018-07-06T19:51:25.477Z,56.89
2018-07-06T19:53:01.048Z,57.23
2018-07-06T19:54:36.643Z,56.98
2018-07-06T19:56:12.465Z,57.26
2018-07-06T19:57:48.044Z,57.16
2018-07-06T19:59:23.638Z,57.46
2018-07-06T20:00:59.184Z,57.51
2018-07-06T20:02:34.738Z,57.90
2018-07-06T20:04:10.376Z,58.23
2018-07-06T20:05:45.988Z,58.13
2018-07-06T20:07:21.565Z,58.64
2018-07-06T20:08:57.127Z,58.55
2018-07-06T20:10:32.695Z,58.79
2018-07-06T20:12:08.409Z,57.71
2018-07-06T20:13:43.995Z,58.18
2018-07-06T20:15:19.592Z,57.82
2018-07-06T20:16:55.140Z,58.33
2018-07-06T20:18:30.775Z,58.70
2018-07-06T20:20:07.112Z,58.97
2018-07-06T20:21:42.944Z,58.82
2018-07-06T20:23:18.511Z,59.00
2018-07-06T20:24:54.242Z,58.90
2018-07-06T20:26:29.780Z,59.31
2018-07-06T20:28:05.481Z,59.37
2018-07-06T20:29:41.065Z,59.22
2018-07-06T20:31:16.649Z,59.18
2018-07-06T20:32:52.454Z,59.32
2018-07-06T20:34:28.173Z,59.78
2018-07-06T20:36:04.116Z,59.49
2018-07-06T20:37:39.711Z,59.85
2018-07-06T20:39:15.303Z,60.21
2018-07-06T20:40:50.892Z,60.10
2018-07-06T20:42:26.484Z,60.64
2018-07-06T20:44:02.236Z,60.43
2018-07-06T20:45:37.801Z,60.56
2018-07-06T20:47:13.444Z,60.91
2018-07-06T20:48:49.008Z,61.34
2018-07-06T20:50:24.654Z,61.34
2018-07-06T20:52:00.250Z,61.32
2018-07-06T20:53:35.851Z,61.25
2018-07-06T20:55:11.435Z,61.48
2018-07-06T20:56:47.024Z,62.01
2018-07-06T20:58:22.592Z,62.28
2018-07-06T20:59:58.244Z,62.42
2018-07-06T21:01:34.008Z,62.47
2018-07-06T21:03:09.759Z,62.44
2018-07-06T21:04:45.667Z,62.95
2018-07-06T21:06:21.256Z,62.90
2018-07-06T21:07:56.826Z,62.90
2018-07-06T21:09:32.379Z,63.12
2018-07-06T21:11:08.213Z,63.30
2018-07-06T21:12:44.048Z,63.06
2018-07-06T21:14:19.632Z,63.14
2018-07-06T21:15:55.245Z,63.53
2018-07-06T21:17:30.808Z,63.72